sensor_id;sensor_type;location;lat;lon;timestamp;P1;durP1;ratioP1;P2;durP2;ratioP2
8964;SDS011;4517;49.020;12.066;2023-06-22T00:00:54;26.60;;;24.27;;
8964;SDS011;4517;49.020;12.066;2023-06-22T00:03:20;29.50;;;26.63;;
8964;SDS011;4517;49.020;12.066;2023-06-22T00:05:47;29.20;;;26.60;;
8964;SDS011;4517;49.020;12.066;2023-06-22T00:08:13;28.57;;;25.87;;
8964;SDS011;4517;49.020;12.066;2023-06-22T00:10:40;30.27;;;27.30;;
8964;SDS011;4517;49.020;12.066;2023-06-22T00:13:06;30.87;;;27.83;;
8964;SDS011;4517;49.020;12.066;2023-06-22T00:15:33;31.73;;;28.73;;
8964;SDS011;4517;49.020;12.066;2023-06-22T00:17:59;34.17;;;30.53;;
8964;SDS011;4517;49.020;12.066;2023-06-22T00:20:25;35.17;;;29.47;;
8964;SDS011;4517;49.020;12.066;2023-06-22T00:22:53;33.50;;;30.17;;
8964;SDS011;4517;49.020;12.066;2023-06-22T00:25:22;39.27;;;32.90;;
8964;SDS011;4517;49.020;12.066;2023-06-22T00:27:48;35.63;;;31.77;;
8964;SDS011;4517;49.020;12.066;2023-06-22T00:30:17;39.10;;;31.97;;
8964;SDS011;4517;49.020;12.066;2023-06-22T00:32:44;34.53;;;30.83;;
8964;SDS011;4517;49.020;12.066;2023-06-22T00:35:11;36.10;;;32.23;;
8964;SDS011;4517;49.020;12.066;2023-06-22T00:37:37;39.17;;;34.97;;
8964;SDS011;4517;49.020;12.066;2023-06-22T00:40:03;37.90;;;34.00;;
8964;SDS011;4517;49.020;12.066;2023-06-22T00:42:30;43.73;;;33.90;;
8964;SDS011;4517;49.020;12.066;2023-06-22T00:44:55;34.70;;;31.20;;
8964;SDS011;4517;49.020;12.066;2023-06-22T00:47:21;34.33;;;30.73;;
8964;SDS011;4517;49.020;12.066;2023-06-22T00:49:47;36.10;;;32.10;;
8964;SDS011;4517;49.020;12.066;2023-06-22T00:52:18;34.27;;;30.87;;
8964;SDS011;4517;49.020;12.066;2023-06-22T00:54:50;34.43;;;31.10;;
8964;SDS011;4517;49.020;12.066;2023-06-22T00:57:17;32.23;;;29.20;;
8964;SDS011;4517;49.020;12.066;2023-06-22T00:59:44;32.20;;;29.30;;
8964;SDS011;4517;49.020;12.066;2023-06-22T01:02:10;31.43;;;28.20;;
8964;SDS011;4517;49.020;12.066;2023-06-22T01:04:38;31.67;;;28.30;;
8964;SDS011;4517;49.020;12.066;2023-06-22T01:07:10;32.53;;;29.20;;
8964;SDS011;4517;49.020;12.066;2023-06-22T01:12:26;31.57;;;28.47;;
8964;SDS011;4517;49.020;12.066;2023-06-22T01:14:58;31.90;;;28.80;;
8964;SDS011;4517;49.020;12.066;2023-06-22T01:17:33;32.30;;;29.10;;
8964;SDS011;4517;49.020;12.066;2023-06-22T01:20:00;33.40;;;30.10;;
8964;SDS011;4517;49.020;12.066;2023-06-22T01:22:30;31.87;;;28.80;;
8964;SDS011;4517;49.020;12.066;2023-06-22T01:30:10;34.67;;;31.40;;
8964;SDS011;4517;49.020;12.066;2023-06-22T01:32:38;32.23;;;29.00;;
8964;SDS011;4517;49.020;12.066;2023-06-22T01:35:06;31.27;;;28.40;;
8964;SDS011;4517;49.020;12.066;2023-06-22T01:37:33;32.17;;;28.03;;
8964;SDS011;4517;49.020;12.066;2023-06-22T01:40:00;32.17;;;29.00;;
8964;SDS011;4517;49.020;12.066;2023-06-22T01:42:29;35.93;;;29.60;;
8964;SDS011;4517;49.020;12.066;2023-06-22T01:44:55;31.33;;;28.20;;
8964;SDS011;4517;49.020;12.066;2023-06-22T01:47:21;29.67;;;26.63;;
8964;SDS011;4517;49.020;12.066;2023-06-22T01:49:47;30.37;;;27.80;;
8964;SDS011;4517;49.020;12.066;2023-06-22T01:52:13;32.60;;;29.40;;
8964;SDS011;4517;49.020;12.066;2023-06-22T01:54:39;30.77;;;27.47;;
8964;SDS011;4517;49.020;12.066;2023-06-22T01:57:05;32.50;;;29.10;;
8964;SDS011;4517;49.020;12.066;2023-06-22T02:02:06;31.70;;;28.70;;
8964;SDS011;4517;49.020;12.066;2023-06-22T02:04:36;30.70;;;27.53;;
8964;SDS011;4517;49.020;12.066;2023-06-22T02:07:17;35.20;;;28.97;;
8964;SDS011;4517;49.020;12.066;2023-06-22T02:09:44;30.97;;;28.17;;
8964;SDS011;4517;49.020;12.066;2023-06-22T02:12:12;31.37;;;28.17;;
8964;SDS011;4517;49.020;12.066;2023-06-22T02:14:41;31.03;;;27.80;;
8964;SDS011;4517;49.020;12.066;2023-06-22T02:17:08;30.77;;;27.43;;
8964;SDS011;4517;49.020;12.066;2023-06-22T02:19:37;33.93;;;30.30;;
8964;SDS011;4517;49.020;12.066;2023-06-22T02:22:04;33.33;;;29.83;;
8964;SDS011;4517;49.020;12.066;2023-06-22T02:24:30;36.30;;;32.93;;
8964;SDS011;4517;49.020;12.066;2023-06-22T02:27:00;37.90;;;33.87;;
8964;SDS011;4517;49.020;12.066;2023-06-22T02:29:26;38.33;;;34.33;;
8964;SDS011;4517;49.020;12.066;2023-06-22T02:31:52;36.70;;;33.30;;
8964;SDS011;4517;49.020;12.066;2023-06-22T02:34:19;38.27;;;34.17;;
8964;SDS011;4517;49.020;12.066;2023-06-22T02:36:48;37.83;;;33.80;;
8964;SDS011;4517;49.020;12.066;2023-06-22T02:41:50;35.97;;;32.20;;
8964;SDS011;4517;49.020;12.066;2023-06-22T02:44:17;39.43;;;33.20;;
8964;SDS011;4517;49.020;12.066;2023-06-22T02:46:43;39.70;;;32.47;;
8964;SDS011;4517;49.020;12.066;2023-06-22T02:49:10;39.13;;;31.93;;
8964;SDS011;4517;49.020;12.066;2023-06-22T02:51:37;32.57;;;29.67;;
8964;SDS011;4517;49.020;12.066;2023-06-22T02:54:04;34.80;;;31.10;;
8964;SDS011;4517;49.020;12.066;2023-06-22T02:56:33;32.90;;;30.00;;
8964;SDS011;4517;49.020;12.066;2023-06-22T02:58:58;34.10;;;29.80;;
8964;SDS011;4517;49.020;12.066;2023-06-22T03:01:29;31.50;;;28.50;;
8964;SDS011;4517;49.020;12.066;2023-06-22T03:04:04;35.97;;;32.53;;
8964;SDS011;4517;49.020;12.066;2023-06-22T03:06:30;34.80;;;31.70;;
8964;SDS011;4517;49.020;12.066;2023-06-22T03:08:59;34.17;;;31.03;;
8964;SDS011;4517;49.020;12.066;2023-06-22T03:11:28;34.80;;;31.60;;
8964;SDS011;4517;49.020;12.066;2023-06-22T03:13:54;32.53;;;29.07;;
8964;SDS011;4517;49.020;12.066;2023-06-22T03:16:20;32.83;;;29.67;;
8964;SDS011;4517;49.020;12.066;2023-06-22T03:18:45;31.50;;;28.40;;
8964;SDS011;4517;49.020;12.066;2023-06-22T03:21:11;31.37;;;28.17;;
8964;SDS011;4517;49.020;12.066;2023-06-22T03:23:37;39.30;;;32.47;;
8964;SDS011;4517;49.020;12.066;2023-06-22T03:26:02;35.40;;;30.93;;
8964;SDS011;4517;49.020;12.066;2023-06-22T03:28:29;33.10;;;29.90;;
8964;SDS011;4517;49.020;12.066;2023-06-22T03:30:56;31.27;;;28.30;;
8964;SDS011;4517;49.020;12.066;2023-06-22T03:33:22;31.33;;;28.20;;
8964;SDS011;4517;49.020;12.066;2023-06-22T03:35:48;30.77;;;27.57;;
8964;SDS011;4517;49.020;12.066;2023-06-22T03:38:15;31.73;;;28.77;;
8964;SDS011;4517;49.020;12.066;2023-06-22T03:40:42;33.30;;;30.27;;
8964;SDS011;4517;49.020;12.066;2023-06-22T03:43:07;32.87;;;29.50;;
8964;SDS011;4517;49.020;12.066;2023-06-22T03:45:33;32.00;;;28.60;;
8964;SDS011;4517;49.020;12.066;2023-06-22T03:48:00;32.90;;;29.40;;
8964;SDS011;4517;49.020;12.066;2023-06-22T03:50:26;30.70;;;27.67;;
8964;SDS011;4517;49.020;12.066;2023-06-22T03:52:51;27.40;;;24.70;;
8964;SDS011;4517;49.020;12.066;2023-06-22T03:55:17;28.23;;;25.57;;
8964;SDS011;4517;49.020;12.066;2023-06-22T03:57:45;25.97;;;23.53;;
8964;SDS011;4517;49.020;12.066;2023-06-22T04:00:11;27.23;;;24.70;;
8964;SDS011;4517;49.020;12.066;2023-06-22T04:02:37;28.17;;;25.07;;
8964;SDS011;4517;49.020;12.066;2023-06-22T04:05:03;27.07;;;24.57;;
8964;SDS011;4517;49.020;12.066;2023-06-22T04:07:29;26.30;;;23.80;;
8964;SDS011;4517;49.020;12.066;2023-06-22T04:09:55;27.57;;;24.87;;
8964;SDS011;4517;49.020;12.066;2023-06-22T04:12:20;27.03;;;24.73;;
8964;SDS011;4517;49.020;12.066;2023-06-22T04:14:46;29.00;;;26.17;;
8964;SDS011;4517;49.020;12.066;2023-06-22T04:17:11;29.10;;;26.10;;
8964;SDS011;4517;49.020;12.066;2023-06-22T04:19:39;25.83;;;23.33;;
8964;SDS011;4517;49.020;12.066;2023-06-22T04:22:05;27.10;;;24.40;;
8964;SDS011;4517;49.020;12.066;2023-06-22T04:24:32;30.53;;;24.70;;
8964;SDS011;4517;49.020;12.066;2023-06-22T04:26:58;26.50;;;24.00;;
8964;SDS011;4517;49.020;12.066;2023-06-22T04:29:27;25.07;;;22.57;;
8964;SDS011;4517;49.020;12.066;2023-06-22T04:31:55;25.93;;;23.40;;
8964;SDS011;4517;49.020;12.066;2023-06-22T04:34:23;37.47;;;34.53;;
8964;SDS011;4517;49.020;12.066;2023-06-22T04:36:53;24.60;;;22.30;;
8964;SDS011;4517;49.020;12.066;2023-06-22T04:39:18;23.93;;;21.73;;
8964;SDS011;4517;49.020;12.066;2023-06-22T04:41:44;25.07;;;22.60;;
8964;SDS011;4517;49.020;12.066;2023-06-22T04:44:19;24.30;;;22.10;;
8964;SDS011;4517;49.020;12.066;2023-06-22T04:46:54;25.67;;;21.60;;
8964;SDS011;4517;49.020;12.066;2023-06-22T04:49:29;23.80;;;21.53;;
8964;SDS011;4517;49.020;12.066;2023-06-22T04:52:00;22.67;;;20.80;;
8964;SDS011;4517;49.020;12.066;2023-06-22T04:54:27;23.53;;;21.43;;
8964;SDS011;4517;49.020;12.066;2023-06-22T04:56:53;22.80;;;20.80;;
8964;SDS011;4517;49.020;12.066;2023-06-22T04:59:24;23.33;;;21.40;;
8964;SDS011;4517;49.020;12.066;2023-06-22T05:01:57;23.87;;;21.97;;
8964;SDS011;4517;49.020;12.066;2023-06-22T05:04:25;24.33;;;21.97;;
8964;SDS011;4517;49.020;12.066;2023-06-22T05:06:52;23.83;;;21.83;;
8964;SDS011;4517;49.020;12.066;2023-06-22T05:09:19;23.07;;;20.97;;
8964;SDS011;4517;49.020;12.066;2023-06-22T05:11:45;23.03;;;20.83;;
8964;SDS011;4517;49.020;12.066;2023-06-22T05:14:11;21.50;;;19.90;;
8964;SDS011;4517;49.020;12.066;2023-06-22T05:16:37;23.53;;;21.33;;
8964;SDS011;4517;49.020;12.066;2023-06-22T05:19:03;23.57;;;21.57;;
8964;SDS011;4517;49.020;12.066;2023-06-22T05:21:29;24.43;;;22.13;;
8964;SDS011;4517;49.020;12.066;2023-06-22T05:23:56;21.90;;;20.07;;
8964;SDS011;4517;49.020;12.066;2023-06-22T05:26:27;25.00;;;22.87;;
8964;SDS011;4517;49.020;12.066;2023-06-22T05:28:54;21.57;;;19.80;;
8964;SDS011;4517;49.020;12.066;2023-06-22T05:31:19;22.77;;;20.87;;
8964;SDS011;4517;49.020;12.066;2023-06-22T05:33:45;21.63;;;19.80;;
8964;SDS011;4517;49.020;12.066;2023-06-22T05:36:12;22.57;;;20.57;;
8964;SDS011;4517;49.020;12.066;2023-06-22T05:38:37;23.20;;;21.00;;
8964;SDS011;4517;49.020;12.066;2023-06-22T05:41:03;23.30;;;21.20;;
8964;SDS011;4517;49.020;12.066;2023-06-22T05:43:29;23.60;;;21.80;;
8964;SDS011;4517;49.020;12.066;2023-06-22T05:45:55;22.20;;;20.17;;
8964;SDS011;4517;49.020;12.066;2023-06-22T05:48:20;22.93;;;20.83;;
8964;SDS011;4517;49.020;12.066;2023-06-22T05:50:46;22.90;;;20.90;;
8964;SDS011;4517;49.020;12.066;2023-06-22T05:53:12;21.97;;;20.27;;
8964;SDS011;4517;49.020;12.066;2023-06-22T05:55:37;23.20;;;21.40;;
8964;SDS011;4517;49.020;12.066;2023-06-22T05:58:03;22.90;;;20.97;;
8964;SDS011;4517;49.020;12.066;2023-06-22T06:00:29;20.80;;;19.20;;
8964;SDS011;4517;49.020;12.066;2023-06-22T06:02:54;23.07;;;20.97;;
8964;SDS011;4517;49.020;12.066;2023-06-22T06:05:20;21.77;;;19.97;;
8964;SDS011;4517;49.020;12.066;2023-06-22T06:07:46;23.10;;;20.90;;
8964;SDS011;4517;49.020;12.066;2023-06-22T06:10:11;22.03;;;20.10;;
8964;SDS011;4517;49.020;12.066;2023-06-22T06:12:38;29.93;;;21.57;;
8964;SDS011;4517;49.020;12.066;2023-06-22T06:15:03;23.17;;;21.27;;
8964;SDS011;4517;49.020;12.066;2023-06-22T06:17:29;33.20;;;30.67;;
8964;SDS011;4517;49.020;12.066;2023-06-22T06:19:55;23.20;;;21.03;;
8964;SDS011;4517;49.020;12.066;2023-06-22T06:22:21;22.83;;;20.90;;
8964;SDS011;4517;49.020;12.066;2023-06-22T06:24:48;21.27;;;19.67;;
8964;SDS011;4517;49.020;12.066;2023-06-22T06:27:14;23.27;;;21.37;;
8964;SDS011;4517;49.020;12.066;2023-06-22T06:29:43;21.50;;;19.80;;
8964;SDS011;4517;49.020;12.066;2023-06-22T06:32:10;23.17;;;20.60;;
8964;SDS011;4517;49.020;12.066;2023-06-22T06:34:36;22.60;;;20.80;;
8964;SDS011;4517;49.020;12.066;2023-06-22T06:37:02;22.90;;;21.03;;
8964;SDS011;4517;49.020;12.066;2023-06-22T06:39:28;22.80;;;20.87;;
8964;SDS011;4517;49.020;12.066;2023-06-22T06:41:54;24.20;;;22.10;;
8964;SDS011;4517;49.020;12.066;2023-06-22T06:44:19;21.23;;;19.67;;
8964;SDS011;4517;49.020;12.066;2023-06-22T06:46:45;22.57;;;20.67;;
8964;SDS011;4517;49.020;12.066;2023-06-22T06:49:10;27.50;;;25.43;;
8964;SDS011;4517;49.020;12.066;2023-06-22T06:51:36;21.17;;;19.50;;
8964;SDS011;4517;49.020;12.066;2023-06-22T06:54:02;22.87;;;20.90;;
8964;SDS011;4517;49.020;12.066;2023-06-22T06:56:28;22.23;;;20.43;;
8964;SDS011;4517;49.020;12.066;2023-06-22T06:58:55;22.13;;;20.23;;
8964;SDS011;4517;49.020;12.066;2023-06-22T07:01:20;21.80;;;20.17;;
8964;SDS011;4517;49.020;12.066;2023-06-22T07:03:46;21.67;;;19.87;;
8964;SDS011;4517;49.020;12.066;2023-06-22T07:06:12;22.10;;;20.40;;
8964;SDS011;4517;49.020;12.066;2023-06-22T07:08:38;22.17;;;20.17;;
8964;SDS011;4517;49.020;12.066;2023-06-22T07:11:05;23.03;;;21.23;;
8964;SDS011;4517;49.020;12.066;2023-06-22T07:13:31;22.73;;;20.67;;
8964;SDS011;4517;49.020;12.066;2023-06-22T07:15:56;21.70;;;19.77;;
8964;SDS011;4517;49.020;12.066;2023-06-22T07:18:22;22.53;;;20.73;;
8964;SDS011;4517;49.020;12.066;2023-06-22T07:20:48;23.00;;;20.53;;
8964;SDS011;4517;49.020;12.066;2023-06-22T07:23:13;22.70;;;20.70;;
8964;SDS011;4517;49.020;12.066;2023-06-22T07:25:39;22.27;;;20.43;;
8964;SDS011;4517;49.020;12.066;2023-06-22T07:28:05;23.17;;;21.27;;
8964;SDS011;4517;49.020;12.066;2023-06-22T07:30:32;22.00;;;20.10;;
8964;SDS011;4517;49.020;12.066;2023-06-22T07:32:58;21.60;;;19.87;;
8964;SDS011;4517;49.020;12.066;2023-06-22T07:35:29;21.47;;;19.50;;
8964;SDS011;4517;49.020;12.066;2023-06-22T07:37:55;21.53;;;19.70;;
8964;SDS011;4517;49.020;12.066;2023-06-22T07:40:21;21.97;;;20.07;;
8964;SDS011;4517;49.020;12.066;2023-06-22T07:42:46;22.20;;;20.00;;
8964;SDS011;4517;49.020;12.066;2023-06-22T07:45:13;21.70;;;19.70;;
8964;SDS011;4517;49.020;12.066;2023-06-22T07:47:40;20.53;;;18.63;;
8964;SDS011;4517;49.020;12.066;2023-06-22T07:50:05;21.27;;;19.17;;
8964;SDS011;4517;49.020;12.066;2023-06-22T07:52:31;21.10;;;19.30;;
8964;SDS011;4517;49.020;12.066;2023-06-22T07:54:57;20.87;;;19.27;;
8964;SDS011;4517;49.020;12.066;2023-06-22T07:57:23;21.60;;;19.30;;
8964;SDS011;4517;49.020;12.066;2023-06-22T07:59:57;23.13;;;21.23;;
8964;SDS011;4517;49.020;12.066;2023-06-22T08:02:23;21.77;;;20.07;;
8964;SDS011;4517;49.020;12.066;2023-06-22T08:04:49;22.37;;;20.10;;
8964;SDS011;4517;49.020;12.066;2023-06-22T08:07:14;21.20;;;19.30;;
8964;SDS011;4517;49.020;12.066;2023-06-22T08:09:42;22.00;;;20.23;;
8964;SDS011;4517;49.020;12.066;2023-06-22T08:12:12;22.10;;;20.30;;
8964;SDS011;4517;49.020;12.066;2023-06-22T08:14:38;21.60;;;19.97;;
8964;SDS011;4517;49.020;12.066;2023-06-22T08:17:04;22.70;;;20.70;;
8964;SDS011;4517;49.020;12.066;2023-06-22T08:19:30;21.97;;;20.23;;
8964;SDS011;4517;49.020;12.066;2023-06-22T08:21:56;21.10;;;19.30;;
8964;SDS011;4517;49.020;12.066;2023-06-22T08:24:22;22.57;;;20.60;;
8964;SDS011;4517;49.020;12.066;2023-06-22T08:26:49;22.27;;;19.23;;
8964;SDS011;4517;49.020;12.066;2023-06-22T08:29:16;21.83;;;19.70;;
8964;SDS011;4517;49.020;12.066;2023-06-22T08:31:42;24.97;;;19.00;;
8964;SDS011;4517;49.020;12.066;2023-06-22T08:34:07;21.70;;;19.50;;
8964;SDS011;4517;49.020;12.066;2023-06-22T08:36:33;21.23;;;18.67;;
8964;SDS011;4517;49.020;12.066;2023-06-22T08:39:02;20.47;;;18.57;;
8964;SDS011;4517;49.020;12.066;2023-06-22T08:41:28;20.80;;;18.70;;
8964;SDS011;4517;49.020;12.066;2023-06-22T08:43:54;20.60;;;18.60;;
8964;SDS011;4517;49.020;12.066;2023-06-22T08:46:20;21.70;;;18.50;;
8964;SDS011;4517;49.020;12.066;2023-06-22T08:48:49;20.17;;;18.23;;
8964;SDS011;4517;49.020;12.066;2023-06-22T08:51:15;20.70;;;18.67;;
8964;SDS011;4517;49.020;12.066;2023-06-22T08:53:41;20.13;;;18.43;;
8964;SDS011;4517;49.020;12.066;2023-06-22T08:56:08;19.87;;;18.07;;
8964;SDS011;4517;49.020;12.066;2023-06-22T08:58:33;20.23;;;18.20;;
8964;SDS011;4517;49.020;12.066;2023-06-22T09:00:59;19.73;;;17.90;;
8964;SDS011;4517;49.020;12.066;2023-06-22T09:03:26;19.00;;;17.30;;
8964;SDS011;4517;49.020;12.066;2023-06-22T09:05:52;20.33;;;18.27;;
8964;SDS011;4517;49.020;12.066;2023-06-22T09:08:17;20.57;;;18.53;;
8964;SDS011;4517;49.020;12.066;2023-06-22T09:10:43;23.77;;;21.23;;
8964;SDS011;4517;49.020;12.066;2023-06-22T09:13:08;22.63;;;19.77;;
8964;SDS011;4517;49.020;12.066;2023-06-22T09:15:34;20.60;;;18.60;;
8964;SDS011;4517;49.020;12.066;2023-06-22T09:18:00;19.93;;;18.03;;
8964;SDS011;4517;49.020;12.066;2023-06-22T09:20:25;20.90;;;19.10;;
8964;SDS011;4517;49.020;12.066;2023-06-22T09:22:51;21.80;;;19.60;;
8964;SDS011;4517;49.020;12.066;2023-06-22T09:25:17;20.87;;;19.17;;
8964;SDS011;4517;49.020;12.066;2023-06-22T09:27:45;21.20;;;19.00;;
8964;SDS011;4517;49.020;12.066;2023-06-22T09:30:11;20.30;;;18.50;;
8964;SDS011;4517;49.020;12.066;2023-06-22T09:32:37;21.27;;;18.60;;
8964;SDS011;4517;49.020;12.066;2023-06-22T09:35:03;21.23;;;19.43;;
8964;SDS011;4517;49.020;12.066;2023-06-22T09:37:34;22.37;;;20.20;;
8964;SDS011;4517;49.020;12.066;2023-06-22T09:40:00;21.10;;;19.10;;
8964;SDS011;4517;49.020;12.066;2023-06-22T09:42:29;20.40;;;18.70;;
8964;SDS011;4517;49.020;12.066;2023-06-22T09:44:55;20.27;;;18.07;;
8964;SDS011;4517;49.020;12.066;2023-06-22T09:47:20;23.17;;;19.50;;
8964;SDS011;4517;49.020;12.066;2023-06-22T09:49:46;21.87;;;19.60;;
8964;SDS011;4517;49.020;12.066;2023-06-22T09:52:11;20.00;;;18.20;;
8964;SDS011;4517;49.020;12.066;2023-06-22T09:54:37;21.67;;;19.43;;
8964;SDS011;4517;49.020;12.066;2023-06-22T09:57:02;21.30;;;19.27;;
8964;SDS011;4517;49.020;12.066;2023-06-22T09:59:28;21.90;;;20.00;;
8964;SDS011;4517;49.020;12.066;2023-06-22T10:01:53;22.60;;;20.07;;
8964;SDS011;4517;49.020;12.066;2023-06-22T10:04:19;21.33;;;19.10;;
8964;SDS011;4517;49.020;12.066;2023-06-22T10:06:44;21.30;;;19.20;;
8964;SDS011;4517;49.020;12.066;2023-06-22T10:09:10;20.40;;;18.50;;
8964;SDS011;4517;49.020;12.066;2023-06-22T10:11:36;22.37;;;20.17;;
8964;SDS011;4517;49.020;12.066;2023-06-22T10:14:02;23.27;;;20.90;;
8964;SDS011;4517;49.020;12.066;2023-06-22T10:16:32;21.77;;;19.57;;
8964;SDS011;4517;49.020;12.066;2023-06-22T10:18:58;25.37;;;23.23;;
8964;SDS011;4517;49.020;12.066;2023-06-22T10:21:24;22.50;;;20.30;;
8964;SDS011;4517;49.020;12.066;2023-06-22T10:23:52;23.40;;;21.40;;
8964;SDS011;4517;49.020;12.066;2023-06-22T10:26:17;23.27;;;21.07;;
8964;SDS011;4517;49.020;12.066;2023-06-22T10:28:43;25.00;;;20.20;;
8964;SDS011;4517;49.020;12.066;2023-06-22T10:31:08;22.80;;;20.80;;
8964;SDS011;4517;49.020;12.066;2023-06-22T10:33:34;22.67;;;20.67;;
8964;SDS011;4517;49.020;12.066;2023-06-22T10:36:02;22.70;;;20.40;;
8964;SDS011;4517;49.020;12.066;2023-06-22T10:38:27;22.10;;;20.03;;
8964;SDS011;4517;49.020;12.066;2023-06-22T10:40:53;27.33;;;21.60;;
8964;SDS011;4517;49.020;12.066;2023-06-22T10:43:18;23.90;;;20.17;;
8964;SDS011;4517;49.020;12.066;2023-06-22T10:45:44;24.07;;;21.50;;
8964;SDS011;4517;49.020;12.066;2023-06-22T10:48:10;22.73;;;20.40;;
8964;SDS011;4517;49.020;12.066;2023-06-22T10:50:35;23.50;;;20.40;;
8964;SDS011;4517;49.020;12.066;2023-06-22T10:53:01;22.40;;;20.50;;
8964;SDS011;4517;49.020;12.066;2023-06-22T10:55:27;22.13;;;20.03;;
8964;SDS011;4517;49.020;12.066;2023-06-22T10:57:52;22.93;;;20.73;;
8964;SDS011;4517;49.020;12.066;2023-06-22T11:00:18;33.87;;;31.10;;
8964;SDS011;4517;49.020;12.066;2023-06-22T11:02:43;22.17;;;20.13;;
8964;SDS011;4517;49.020;12.066;2023-06-22T11:05:09;25.07;;;20.37;;
8964;SDS011;4517;49.020;12.066;2023-06-22T11:07:36;31.13;;;21.30;;
8964;SDS011;4517;49.020;12.066;2023-06-22T11:10:02;28.30;;;20.73;;
8964;SDS011;4517;49.020;12.066;2023-06-22T11:12:28;22.73;;;20.43;;
8964;SDS011;4517;49.020;12.066;2023-06-22T11:14:54;21.17;;;19.10;;
8964;SDS011;4517;49.020;12.066;2023-06-22T11:17:22;23.83;;;20.93;;
8964;SDS011;4517;49.020;12.066;2023-06-22T11:19:47;23.03;;;20.73;;
8964;SDS011;4517;49.020;12.066;2023-06-22T11:22:13;22.50;;;20.30;;
8964;SDS011;4517;49.020;12.066;2023-06-22T11:24:39;23.03;;;20.80;;
8964;SDS011;4517;49.020;12.066;2023-06-22T11:27:05;25.10;;;21.50;;
8964;SDS011;4517;49.020;12.066;2023-06-22T11:29:30;23.33;;;21.00;;
8964;SDS011;4517;49.020;12.066;2023-06-22T11:31:56;22.93;;;20.47;;
8964;SDS011;4517;49.020;12.066;2023-06-22T11:34:23;23.47;;;20.60;;
8964;SDS011;4517;49.020;12.066;2023-06-22T11:36:48;22.27;;;20.03;;
8964;SDS011;4517;49.020;12.066;2023-06-22T11:39:15;25.67;;;20.63;;
8964;SDS011;4517;49.020;12.066;2023-06-22T11:41:41;21.63;;;19.77;;
8964;SDS011;4517;49.020;12.066;2023-06-22T11:44:07;26.53;;;20.97;;
8964;SDS011;4517;49.020;12.066;2023-06-22T11:46:32;22.60;;;20.20;;
8964;SDS011;4517;49.020;12.066;2023-06-22T11:48:58;23.23;;;21.03;;
8964;SDS011;4517;49.020;12.066;2023-06-22T11:51:24;24.80;;;20.80;;
8964;SDS011;4517;49.020;12.066;2023-06-22T11:53:49;22.77;;;20.87;;
8964;SDS011;4517;49.020;12.066;2023-06-22T11:56:15;25.70;;;21.93;;
8964;SDS011;4517;49.020;12.066;2023-06-22T11:58:40;24.17;;;21.77;;
8964;SDS011;4517;49.020;12.066;2023-06-22T12:01:06;23.70;;;20.60;;
8964;SDS011;4517;49.020;12.066;2023-06-22T12:03:32;27.97;;;21.10;;
8964;SDS011;4517;49.020;12.066;2023-06-22T12:05:57;23.40;;;21.20;;
8964;SDS011;4517;49.020;12.066;2023-06-22T12:08:23;25.27;;;22.33;;
8964;SDS011;4517;49.020;12.066;2023-06-22T12:10:49;23.90;;;21.60;;
8964;SDS011;4517;49.020;12.066;2023-06-22T12:13:15;22.97;;;20.67;;
8964;SDS011;4517;49.020;12.066;2023-06-22T12:15:41;22.87;;;20.67;;
8964;SDS011;4517;49.020;12.066;2023-06-22T12:18:06;22.83;;;20.40;;
8964;SDS011;4517;49.020;12.066;2023-06-22T12:20:33;23.60;;;20.77;;
8964;SDS011;4517;49.020;12.066;2023-06-22T12:22:59;23.37;;;21.27;;
8964;SDS011;4517;49.020;12.066;2023-06-22T12:25:24;23.43;;;21.00;;
8964;SDS011;4517;49.020;12.066;2023-06-22T12:27:50;25.70;;;20.90;;
8964;SDS011;4517;49.020;12.066;2023-06-22T12:30:16;24.27;;;21.47;;
8964;SDS011;4517;49.020;12.066;2023-06-22T12:32:42;23.60;;;21.20;;
8964;SDS011;4517;49.020;12.066;2023-06-22T12:35:07;22.33;;;20.00;;
8964;SDS011;4517;49.020;12.066;2023-06-22T12:37:38;30.80;;;20.77;;
8964;SDS011;4517;49.020;12.066;2023-06-22T12:40:05;22.67;;;20.30;;
8964;SDS011;4517;49.020;12.066;2023-06-22T12:42:31;23.40;;;20.90;;
8964;SDS011;4517;49.020;12.066;2023-06-22T12:44:57;23.70;;;21.07;;
8964;SDS011;4517;49.020;12.066;2023-06-22T12:47:22;23.77;;;21.57;;
8964;SDS011;4517;49.020;12.066;2023-06-22T12:49:48;23.17;;;21.00;;
8964;SDS011;4517;49.020;12.066;2023-06-22T12:52:13;24.20;;;20.70;;
8964;SDS011;4517;49.020;12.066;2023-06-22T12:54:39;31.80;;;29.00;;
8964;SDS011;4517;49.020;12.066;2023-06-22T12:57:05;24.57;;;20.73;;
8964;SDS011;4517;49.020;12.066;2023-06-22T12:59:30;31.03;;;20.90;;
8964;SDS011;4517;49.020;12.066;2023-06-22T13:01:56;22.07;;;20.00;;
8964;SDS011;4517;49.020;12.066;2023-06-22T13:04:21;21.47;;;19.40;;
8964;SDS011;4517;49.020;12.066;2023-06-22T13:06:47;22.87;;;20.57;;
8964;SDS011;4517;49.020;12.066;2023-06-22T13:09:13;21.93;;;19.77;;
8964;SDS011;4517;49.020;12.066;2023-06-22T13:11:40;23.77;;;21.00;;
8964;SDS011;4517;49.020;12.066;2023-06-22T13:14:06;23.20;;;20.83;;
8964;SDS011;4517;49.020;12.066;2023-06-22T13:16:31;24.80;;;20.97;;
8964;SDS011;4517;49.020;12.066;2023-06-22T13:18:57;23.70;;;21.10;;
8964;SDS011;4517;49.020;12.066;2023-06-22T13:21:22;26.00;;;22.40;;
8964;SDS011;4517;49.020;12.066;2023-06-22T13:23:48;23.77;;;21.27;;
8964;SDS011;4517;49.020;12.066;2023-06-22T13:26:14;23.80;;;20.97;;
8964;SDS011;4517;49.020;12.066;2023-06-22T13:28:39;24.57;;;20.67;;
8964;SDS011;4517;49.020;12.066;2023-06-22T13:31:05;22.97;;;21.00;;
8964;SDS011;4517;49.020;12.066;2023-06-22T13:33:30;23.87;;;21.30;;
8964;SDS011;4517;49.020;12.066;2023-06-22T13:35:56;22.13;;;20.03;;
8964;SDS011;4517;49.020;12.066;2023-06-22T13:38:22;21.70;;;19.40;;
8964;SDS011;4517;49.020;12.066;2023-06-22T13:40:48;25.00;;;21.27;;
8964;SDS011;4517;49.020;12.066;2023-06-22T13:43:14;27.50;;;20.37;;
8964;SDS011;4517;49.020;12.066;2023-06-22T13:45:40;24.53;;;21.13;;
8964;SDS011;4517;49.020;12.066;2023-06-22T13:48:06;25.83;;;20.97;;
8964;SDS011;4517;49.020;12.066;2023-06-22T13:50:32;23.63;;;21.23;;
8964;SDS011;4517;49.020;12.066;2023-06-22T13:52:58;23.03;;;20.73;;
8964;SDS011;4517;49.020;12.066;2023-06-22T13:55:23;24.17;;;21.63;;
8964;SDS011;4517;49.020;12.066;2023-06-22T13:57:49;23.20;;;20.97;;
8964;SDS011;4517;49.020;12.066;2023-06-22T14:00:16;22.33;;;20.03;;
8964;SDS011;4517;49.020;12.066;2023-06-22T14:02:42;22.30;;;20.00;;
8964;SDS011;4517;49.020;12.066;2023-06-22T14:05:08;27.97;;;21.20;;
8964;SDS011;4517;49.020;12.066;2023-06-22T14:07:33;25.33;;;20.90;;
8964;SDS011;4517;49.020;12.066;2023-06-22T14:09:59;22.47;;;20.60;;
8964;SDS011;4517;49.020;12.066;2023-06-22T14:12:25;23.13;;;20.40;;
8964;SDS011;4517;49.020;12.066;2023-06-22T14:14:51;24.43;;;20.70;;
8964;SDS011;4517;49.020;12.066;2023-06-22T14:17:17;25.50;;;21.40;;
8964;SDS011;4517;49.020;12.066;2023-06-22T14:19:48;21.90;;;19.80;;
8964;SDS011;4517;49.020;12.066;2023-06-22T14:22:14;22.60;;;20.40;;
8964;SDS011;4517;49.020;12.066;2023-06-22T14:24:40;30.40;;;19.70;;
8964;SDS011;4517;49.020;12.066;2023-06-22T14:27:06;24.63;;;20.93;;
8964;SDS011;4517;49.020;12.066;2023-06-22T14:29:33;22.00;;;19.90;;
8964;SDS011;4517;49.020;12.066;2023-06-22T14:31:59;27.13;;;20.50;;
8964;SDS011;4517;49.020;12.066;2023-06-22T14:34:25;22.83;;;20.20;;
8964;SDS011;4517;49.020;12.066;2023-06-22T14:36:51;23.57;;;21.07;;
8964;SDS011;4517;49.020;12.066;2023-06-22T14:39:16;29.73;;;20.40;;
8964;SDS011;4517;49.020;12.066;2023-06-22T14:41:42;23.07;;;19.97;;